QFA478 YSSY-YMML
Flight info
| Callsign | QFA478 |
|---|---|
| Flight time | 1h 7m |
| Altitude | 32000 |
| Route | WOL H65 LEECE Q29 ML |
| Aircraft | B738/M-SDE2E3FGHIRWXY/LB1 |
Departure
| Time | 2026-04-25 03:59 |
|---|---|
| Airport | Sydney Kingsford Smith International Airport (YSSY) |
Arrival
| Time | 2026-04-25 05:06 |
|---|---|
| Airport | Melbourne Airport (YMML) |
| Time | Latitude | Longitude | Altitude | Speed | Heading |
|---|---|---|---|---|---|
| 2026-04-25 03:21 | -33.93165 | 151.17913 | 30 ft | 0 kts | 189° |
| 2026-04-25 03:44 | -33.93164 | 151.17913 | 30 ft | 1 kts | 189° |
| 2026-04-25 03:45 | -33.93150 | 151.17916 | 30 ft | 3 kts | 192° |
| 2026-04-25 03:45 | -33.93130 | 151.17922 | 30 ft | 3 kts | 198° |
| 2026-04-25 03:45 | -33.93111 | 151.17931 | 30 ft | 3 kts | 207° |
| 2026-04-25 03:45 | -33.93095 | 151.17943 | 30 ft | 3 kts | 228° |
| 2026-04-25 03:46 | -33.93086 | 151.17960 | 30 ft | 2 kts | 271° |
| 2026-04-25 03:46 | -33.93086 | 151.17965 | 30 ft | 1 kts | 279° |
| 2026-04-25 03:51 | -33.93084 | 151.17954 | 30 ft | 6 kts | 279° |
| 2026-04-25 03:51 | -33.93078 | 151.17905 | 30 ft | 6 kts | 279° |
| 2026-04-25 03:51 | -33.93069 | 151.17848 | 30 ft | 8 kts | 280° |
| 2026-04-25 03:52 | -33.93060 | 151.17786 | 29 ft | 7 kts | 281° |
| 2026-04-25 03:52 | -33.93043 | 151.17730 | 29 ft | 7 kts | 296° |
| 2026-04-25 03:52 | -33.93021 | 151.17678 | 29 ft | 7 kts | 294° |
| 2026-04-25 03:52 | -33.93009 | 151.17623 | 29 ft | 7 kts | 281° |
| 2026-04-25 03:53 | -33.93000 | 151.17568 | 29 ft | 7 kts | 281° |
| 2026-04-25 03:53 | -33.92992 | 151.17515 | 29 ft | 6 kts | 281° |
| 2026-04-25 03:53 | -33.92983 | 151.17457 | 26 ft | 10 kts | 281° |
| 2026-04-25 03:53 | -33.92971 | 151.17376 | 23 ft | 10 kts | 280° |
| 2026-04-25 03:54 | -33.92961 | 151.17316 | 19 ft | 3 kts | 280° |
| 2026-04-25 03:54 | -33.92961 | 151.17313 | 19 ft | 0 kts | 280° |
| 2026-04-25 03:57 | -33.92961 | 151.17312 | 19 ft | 1 kts | 280° |
| 2026-04-25 03:57 | -33.92954 | 151.17270 | 19 ft | 9 kts | 279° |
| 2026-04-25 03:57 | -33.92948 | 151.17208 | 19 ft | 6 kts | 261° |
| 2026-04-25 03:58 | -33.92980 | 151.17177 | 18 ft | 6 kts | 193° |
| 2026-04-25 03:58 | -33.93011 | 151.17179 | 18 ft | 0 kts | 168° |
| 2026-04-25 03:58 | -33.93059 | 151.17192 | 19 ft | 29 kts | 167° |
| 2026-04-25 03:58 | -33.93471 | 151.17301 | 15 ft | 92 kts | 167° |
| 2026-04-25 03:59 | -33.94282 | 151.17512 | 27 ft | 144 kts | 167° |
| 2026-04-25 03:59 | -33.95394 | 151.17821 | 87 ft | 179 kts | 165° |
| 2026-04-25 03:59 | -33.96604 | 151.18145 | 696 ft | 177 kts | 166° |
| 2026-04-25 03:59 | -33.97824 | 151.18219 | 1399 ft | 169 kts | 182° |
| 2026-04-25 04:00 | -33.98999 | 151.18062 | 1889 ft | 176 kts | 187° |
| 2026-04-25 04:00 | -34.00300 | 151.17871 | 2154 ft | 198 kts | 187° |
| 2026-04-25 04:00 | -34.01760 | 151.17674 | 2355 ft | 220 kts | 187° |
| 2026-04-25 04:00 | -34.03351 | 151.17594 | 2476 ft | 239 kts | 169° |
| 2026-04-25 04:01 | -34.04968 | 151.18186 | 2792 ft | 246 kts | 162° |
| 2026-04-25 04:01 | -34.06662 | 151.18803 | 2958 ft | 263 kts | 163° |
| 2026-04-25 04:01 | -34.08436 | 151.19412 | 3366 ft | 273 kts | 163° |
| 2026-04-25 04:01 | -34.10265 | 151.20028 | 4082 ft | 272 kts | 164° |
| 2026-04-25 04:02 | -34.12089 | 151.20639 | 4789 ft | 273 kts | 164° |
| 2026-04-25 04:02 | -34.13964 | 151.21087 | 5360 ft | 278 kts | 183° |
| 2026-04-25 04:02 | -34.15763 | 151.20375 | 6014 ft | 274 kts | 218° |
| 2026-04-25 04:02 | -34.17198 | 151.18869 | 6716 ft | 274 kts | 222° |
| 2026-04-25 04:03 | -34.18638 | 151.17341 | 7316 ft | 277 kts | 222° |
| 2026-04-25 04:03 | -34.20103 | 151.15800 | 7930 ft | 281 kts | 221° |
| 2026-04-25 04:03 | -34.21086 | 151.14773 | 8351 ft | 283 kts | 221° |
| 2026-04-25 04:03 | -34.23080 | 151.12704 | 9225 ft | 287 kts | 220° |
| 2026-04-25 04:04 | -34.24110 | 151.11642 | 9667 ft | 289 kts | 220° |
| 2026-04-25 04:04 | -34.25650 | 151.10057 | 10283 ft | 296 kts | 219° |
| 2026-04-25 04:04 | -34.27276 | 151.08389 | 10449 ft | 317 kts | 219° |
| 2026-04-25 04:04 | -34.29603 | 151.06006 | 10661 ft | 344 kts | 219° |
| 2026-04-25 04:05 | -34.30851 | 151.04729 | 10866 ft | 352 kts | 219° |
| 2026-04-25 04:05 | -34.32740 | 151.02794 | 11426 ft | 356 kts | 220° |
| 2026-04-25 04:05 | -34.34633 | 151.00854 | 12084 ft | 358 kts | 220° |
| 2026-04-25 04:05 | -34.36545 | 150.98895 | 12705 ft | 362 kts | 220° |
| 2026-04-25 04:06 | -34.38455 | 150.96937 | 13311 ft | 365 kts | 220° |
| 2026-04-25 04:06 | -34.40403 | 150.94939 | 13951 ft | 369 kts | 220° |
| 2026-04-25 04:06 | -34.42374 | 150.92916 | 14553 ft | 373 kts | 220° |
| 2026-04-25 04:06 | -34.44367 | 150.90869 | 15165 ft | 376 kts | 220° |
| 2026-04-25 04:07 | -34.46371 | 150.88810 | 15799 ft | 378 kts | 219° |
| 2026-04-25 04:07 | -34.48387 | 150.86737 | 16426 ft | 381 kts | 219° |
| 2026-04-25 04:07 | -34.50417 | 150.84648 | 17039 ft | 385 kts | 219° |
| 2026-04-25 04:07 | -34.52469 | 150.82536 | 17653 ft | 388 kts | 219° |
| 2026-04-25 04:08 | -34.54532 | 150.80410 | 18245 ft | 391 kts | 219° |
| 2026-04-25 04:08 | -34.56471 | 150.78117 | 18786 ft | 397 kts | 229° |
| 2026-04-25 04:08 | -34.58148 | 150.75444 | 19313 ft | 400 kts | 232° |
| 2026-04-25 04:08 | -34.59780 | 150.72699 | 19819 ft | 403 kts | 233° |
| 2026-04-25 04:09 | -34.61418 | 150.69919 | 20318 ft | 406 kts | 232° |
| 2026-04-25 04:09 | -34.63072 | 150.67120 | 20832 ft | 409 kts | 233° |
| 2026-04-25 04:09 | -34.64738 | 150.64313 | 21359 ft | 411 kts | 232° |
| 2026-04-25 04:09 | -34.66425 | 150.61484 | 21860 ft | 414 kts | 232° |
| 2026-04-25 04:10 | -34.68122 | 150.58649 | 22340 ft | 417 kts | 232° |
| 2026-04-25 04:10 | -34.69839 | 150.55783 | 22802 ft | 420 kts | 232° |
| 2026-04-25 04:10 | -34.71565 | 150.52904 | 23259 ft | 423 kts | 232° |
| 2026-04-25 04:10 | -34.73302 | 150.50006 | 23731 ft | 425 kts | 232° |
| 2026-04-25 04:11 | -34.76808 | 150.44150 | 24538 ft | 430 kts | 232° |
| 2026-04-25 04:11 | -34.78544 | 150.41244 | 24967 ft | 430 kts | 232° |
| 2026-04-25 04:11 | -34.80330 | 150.38253 | 25371 ft | 432 kts | 232° |
| 2026-04-25 04:12 | -34.82100 | 150.35287 | 25729 ft | 434 kts | 232° |
| 2026-04-25 04:12 | -34.83855 | 150.32345 | 26075 ft | 437 kts | 232° |
| 2026-04-25 04:12 | -34.85646 | 150.29337 | 26437 ft | 439 kts | 232° |
| 2026-04-25 04:12 | -34.87450 | 150.26307 | 26790 ft | 441 kts | 232° |
| 2026-04-25 04:13 | -34.89252 | 150.23276 | 27134 ft | 443 kts | 232° |
| 2026-04-25 04:13 | -34.91059 | 150.20235 | 27476 ft | 444 kts | 232° |
| 2026-04-25 04:13 | -34.92875 | 150.17176 | 27800 ft | 446 kts | 232° |
| 2026-04-25 04:13 | -34.94696 | 150.14106 | 28156 ft | 447 kts | 232° |
| 2026-04-25 04:14 | -34.96518 | 150.11031 | 28588 ft | 446 kts | 232° |
| 2026-04-25 04:14 | -34.98330 | 150.07970 | 29091 ft | 444 kts | 233° |
| 2026-04-25 04:14 | -35.00128 | 150.04929 | 29612 ft | 441 kts | 232° |
| 2026-04-25 04:14 | -35.01902 | 150.01928 | 30078 ft | 439 kts | 232° |
| 2026-04-25 04:15 | -35.03685 | 149.98910 | 30483 ft | 439 kts | 232° |
| 2026-04-25 04:15 | -35.05470 | 149.95885 | 30827 ft | 438 kts | 232° |
| 2026-04-25 04:15 | -35.07249 | 149.92872 | 31202 ft | 437 kts | 232° |
| 2026-04-25 04:15 | -35.09023 | 149.89867 | 31574 ft | 435 kts | 232° |
| 2026-04-25 04:16 | -35.10791 | 149.86871 | 31923 ft | 434 kts | 232° |
| 2026-04-25 04:16 | -35.12553 | 149.83882 | 32255 ft | 433 kts | 233° |
| 2026-04-25 04:16 | -35.14322 | 149.80878 | 32343 ft | 437 kts | 233° |
| 2026-04-25 04:17 | -35.17878 | 149.74833 | 32351 ft | 437 kts | 233° |
| 2026-04-25 04:17 | -35.21369 | 149.68885 | 32356 ft | 431 kts | 233° |
| 2026-04-25 04:18 | -35.24865 | 149.62918 | 32361 ft | 432 kts | 233° |
| 2026-04-25 04:18 | -35.28375 | 149.56919 | 32369 ft | 433 kts | 233° |
| 2026-04-25 04:19 | -35.31880 | 149.50918 | 32377 ft | 434 kts | 233° |
| 2026-04-25 04:19 | -35.35390 | 149.44896 | 32381 ft | 434 kts | 233° |
| 2026-04-25 04:20 | -35.38901 | 149.38864 | 32384 ft | 435 kts | 233° |
| 2026-04-25 04:20 | -35.42408 | 149.32826 | 32388 ft | 435 kts | 233° |
| 2026-04-25 04:21 | -35.45896 | 149.26813 | 32388 ft | 435 kts | 233° |
| 2026-04-25 04:21 | -35.49400 | 149.20760 | 32384 ft | 434 kts | 233° |
| 2026-04-25 04:22 | -35.52896 | 149.14711 | 32373 ft | 434 kts | 233° |
| 2026-04-25 04:22 | -35.56382 | 149.08669 | 32375 ft | 433 kts | 233° |
| 2026-04-25 04:23 | -35.59839 | 149.02667 | 32350 ft | 433 kts | 234° |
| 2026-04-25 04:23 | -35.63318 | 148.96617 | 32349 ft | 432 kts | 234° |
| 2026-04-25 04:24 | -35.66783 | 148.90579 | 32358 ft | 432 kts | 234° |
| 2026-04-25 04:24 | -35.70248 | 148.84532 | 32355 ft | 432 kts | 234° |
| 2026-04-25 04:25 | -35.73714 | 148.78471 | 32358 ft | 432 kts | 234° |
| 2026-04-25 04:25 | -35.77147 | 148.72458 | 32359 ft | 432 kts | 234° |
| 2026-04-25 04:26 | -35.80608 | 148.66386 | 32360 ft | 431 kts | 234° |
| 2026-04-25 04:26 | -35.84053 | 148.60330 | 32358 ft | 431 kts | 234° |
| 2026-04-25 04:27 | -35.87495 | 148.54271 | 32369 ft | 431 kts | 234° |
| 2026-04-25 04:27 | -35.90904 | 148.48239 | 32363 ft | 431 kts | 234° |
| 2026-04-25 04:28 | -35.94322 | 148.42157 | 32375 ft | 430 kts | 235° |
| 2026-04-25 04:28 | -35.97730 | 148.36083 | 32374 ft | 430 kts | 235° |
| 2026-04-25 04:29 | -36.01136 | 148.30004 | 32368 ft | 430 kts | 235° |
| 2026-04-25 04:29 | -36.04536 | 148.23925 | 32369 ft | 430 kts | 235° |
| 2026-04-25 04:30 | -36.07919 | 148.17867 | 32362 ft | 430 kts | 235° |
| 2026-04-25 04:30 | -36.11319 | 148.11768 | 32378 ft | 430 kts | 235° |
| 2026-04-25 04:31 | -36.14722 | 148.05675 | 32370 ft | 431 kts | 235° |
| 2026-04-25 04:31 | -36.18138 | 147.99558 | 32367 ft | 431 kts | 235° |
| 2026-04-25 04:32 | -36.21551 | 147.93435 | 32380 ft | 432 kts | 235° |
| 2026-04-25 04:32 | -36.24941 | 147.87339 | 32363 ft | 432 kts | 235° |
| 2026-04-25 04:33 | -36.28352 | 147.81194 | 32362 ft | 433 kts | 236° |
| 2026-04-25 04:33 | -36.31765 | 147.75035 | 32361 ft | 433 kts | 236° |
| 2026-04-25 04:34 | -36.35179 | 147.68861 | 32363 ft | 434 kts | 236° |
| 2026-04-25 04:34 | -36.38586 | 147.62678 | 32360 ft | 434 kts | 236° |
| 2026-04-25 04:35 | -36.41996 | 147.56479 | 32364 ft | 434 kts | 236° |
| 2026-04-25 04:35 | -36.45382 | 147.50310 | 32361 ft | 434 kts | 236° |
| 2026-04-25 04:36 | -36.48782 | 147.44106 | 32358 ft | 434 kts | 236° |
| 2026-04-25 04:36 | -36.52181 | 147.37892 | 32352 ft | 434 kts | 236° |
| 2026-04-25 04:37 | -36.55574 | 147.31678 | 32360 ft | 434 kts | 236° |
| 2026-04-25 04:37 | -36.58956 | 147.25472 | 32358 ft | 433 kts | 236° |
| 2026-04-25 04:38 | -36.62334 | 147.19263 | 32357 ft | 433 kts | 236° |
| 2026-04-25 04:38 | -36.65691 | 147.13079 | 32364 ft | 433 kts | 237° |
| 2026-04-25 04:39 | -36.69058 | 147.06868 | 32358 ft | 433 kts | 237° |
| 2026-04-25 04:39 | -36.72430 | 147.00641 | 32357 ft | 433 kts | 237° |
| 2026-04-25 04:40 | -36.75772 | 146.94470 | 32318 ft | 420 kts | 237° |
| 2026-04-25 04:40 | -36.77392 | 146.91474 | 31999 ft | 413 kts | 237° |
| 2026-04-25 04:40 | -36.78986 | 146.88523 | 31649 ft | 408 kts | 237° |
| 2026-04-25 04:40 | -36.80566 | 146.85595 | 31276 ft | 405 kts | 237° |
| 2026-04-25 04:41 | -36.82113 | 146.82725 | 30893 ft | 402 kts | 237° |
| 2026-04-25 04:41 | -36.83667 | 146.79839 | 30507 ft | 399 kts | 237° |
| 2026-04-25 04:41 | -36.85211 | 146.76969 | 30061 ft | 397 kts | 237° |
| 2026-04-25 04:41 | -36.86745 | 146.74117 | 29630 ft | 394 kts | 237° |
| 2026-04-25 04:42 | -36.88267 | 146.71283 | 29202 ft | 390 kts | 238° |
| 2026-04-25 04:42 | -36.89773 | 146.68479 | 28801 ft | 387 kts | 238° |
| 2026-04-25 04:42 | -36.91264 | 146.65697 | 28391 ft | 384 kts | 238° |
| 2026-04-25 04:42 | -36.92748 | 146.62927 | 27993 ft | 381 kts | 238° |
| 2026-04-25 04:43 | -36.94219 | 146.60181 | 27601 ft | 378 kts | 238° |
| 2026-04-25 04:43 | -36.95658 | 146.57491 | 27206 ft | 376 kts | 238° |
| 2026-04-25 04:43 | -36.97103 | 146.54786 | 26828 ft | 373 kts | 238° |
| 2026-04-25 04:43 | -36.98546 | 146.52085 | 26446 ft | 371 kts | 238° |
| 2026-04-25 04:44 | -36.99975 | 146.49407 | 26055 ft | 369 kts | 238° |
| 2026-04-25 04:44 | -37.01398 | 146.46739 | 25686 ft | 367 kts | 238° |
| 2026-04-25 04:44 | -37.02812 | 146.44084 | 25306 ft | 365 kts | 238° |
| 2026-04-25 04:44 | -37.04215 | 146.41447 | 24925 ft | 364 kts | 238° |
| 2026-04-25 04:45 | -37.05616 | 146.38815 | 24554 ft | 362 kts | 238° |
| 2026-04-25 04:45 | -37.06995 | 146.36221 | 24164 ft | 362 kts | 239° |
| 2026-04-25 04:45 | -37.08388 | 146.33597 | 23762 ft | 361 kts | 239° |
| 2026-04-25 04:45 | -37.09774 | 146.30982 | 23329 ft | 359 kts | 239° |
| 2026-04-25 04:46 | -37.11152 | 146.28379 | 22925 ft | 357 kts | 239° |
| 2026-04-25 04:46 | -37.12520 | 146.25792 | 22545 ft | 354 kts | 239° |
| 2026-04-25 04:46 | -37.13874 | 146.23229 | 22173 ft | 352 kts | 239° |
| 2026-04-25 04:46 | -37.15223 | 146.20673 | 21808 ft | 349 kts | 239° |
| 2026-04-25 04:47 | -37.16544 | 146.18169 | 21444 ft | 347 kts | 239° |
| 2026-04-25 04:47 | -37.17869 | 146.15656 | 21088 ft | 345 kts | 239° |
| 2026-04-25 04:47 | -37.19185 | 146.13157 | 20734 ft | 342 kts | 239° |
| 2026-04-25 04:47 | -37.20494 | 146.10670 | 20390 ft | 341 kts | 239° |
| 2026-04-25 04:48 | -37.21795 | 146.08195 | 20018 ft | 339 kts | 239° |
| 2026-04-25 04:48 | -37.23093 | 146.05725 | 19663 ft | 338 kts | 239° |
| 2026-04-25 04:48 | -37.24385 | 146.03266 | 19317 ft | 336 kts | 239° |
| 2026-04-25 04:48 | -37.25670 | 146.00815 | 18954 ft | 335 kts | 239° |
| 2026-04-25 04:49 | -37.26936 | 145.98401 | 18604 ft | 333 kts | 239° |
| 2026-04-25 04:49 | -37.28209 | 145.95972 | 18198 ft | 332 kts | 239° |
| 2026-04-25 04:49 | -37.29479 | 145.93548 | 17824 ft | 331 kts | 239° |
| 2026-04-25 04:49 | -37.30738 | 145.91143 | 17460 ft | 328 kts | 239° |
| 2026-04-25 04:50 | -37.31995 | 145.88749 | 17090 ft | 327 kts | 240° |
| 2026-04-25 04:50 | -37.33248 | 145.86366 | 16726 ft | 326 kts | 239° |
| 2026-04-25 04:50 | -37.34496 | 145.83991 | 16372 ft | 325 kts | 239° |
| 2026-04-25 04:50 | -37.35738 | 145.81626 | 16014 ft | 323 kts | 240° |
| 2026-04-25 04:51 | -37.36973 | 145.79272 | 15686 ft | 322 kts | 240° |
| 2026-04-25 04:51 | -37.38188 | 145.76954 | 15344 ft | 321 kts | 239° |
| 2026-04-25 04:51 | -37.39018 | 145.75369 | 15111 ft | 320 kts | 239° |
| 2026-04-25 04:51 | -37.40226 | 145.73058 | 14783 ft | 319 kts | 239° |
| 2026-04-25 04:52 | -37.41446 | 145.70726 | 14442 ft | 318 kts | 240° |
| 2026-04-25 04:52 | -37.42661 | 145.68402 | 14102 ft | 318 kts | 240° |
| 2026-04-25 04:52 | -37.43872 | 145.66083 | 13720 ft | 317 kts | 240° |
| 2026-04-25 04:52 | -37.45078 | 145.63775 | 13365 ft | 314 kts | 239° |
| 2026-04-25 04:53 | -37.46330 | 145.61522 | 13033 ft | 312 kts | 237° |
| 2026-04-25 04:53 | -37.47616 | 145.59333 | 12710 ft | 311 kts | 237° |
| 2026-04-25 04:53 | -37.48906 | 145.57154 | 12378 ft | 309 kts | 237° |
| 2026-04-25 04:53 | -37.50185 | 145.54981 | 12050 ft | 307 kts | 237° |
| 2026-04-25 04:54 | -37.51437 | 145.52842 | 11605 ft | 309 kts | 237° |
| 2026-04-25 04:54 | -37.52720 | 145.50636 | 11158 ft | 312 kts | 237° |
| 2026-04-25 04:54 | -37.54001 | 145.48430 | 10781 ft | 311 kts | 238° |
| 2026-04-25 04:54 | -37.55277 | 145.46232 | 10454 ft | 309 kts | 238° |
| 2026-04-25 04:55 | -37.56537 | 145.44060 | 10223 ft | 304 kts | 238° |
| 2026-04-25 04:55 | -37.57770 | 145.41935 | 10066 ft | 295 kts | 238° |
| 2026-04-25 04:55 | -37.58970 | 145.39863 | 9783 ft | 291 kts | 238° |
| 2026-04-25 04:55 | -37.60160 | 145.37805 | 9490 ft | 289 kts | 238° |
| 2026-04-25 04:56 | -37.61344 | 145.35754 | 9168 ft | 287 kts | 239° |
| 2026-04-25 04:56 | -37.62517 | 145.33723 | 8882 ft | 285 kts | 238° |
| 2026-04-25 04:56 | -37.63668 | 145.31728 | 8585 ft | 284 kts | 239° |
| 2026-04-25 04:56 | -37.64828 | 145.29716 | 8280 ft | 283 kts | 239° |
| 2026-04-25 04:57 | -37.65983 | 145.27714 | 7997 ft | 281 kts | 239° |
| 2026-04-25 04:57 | -37.67133 | 145.25717 | 7706 ft | 281 kts | 239° |
| 2026-04-25 04:57 | -37.68282 | 145.23721 | 7405 ft | 281 kts | 239° |
| 2026-04-25 04:57 | -37.69432 | 145.21724 | 7110 ft | 280 kts | 239° |
| 2026-04-25 04:58 | -37.70573 | 145.19741 | 6849 ft | 279 kts | 239° |
| 2026-04-25 04:58 | -37.71713 | 145.17759 | 6531 ft | 278 kts | 239° |
| 2026-04-25 04:58 | -37.72846 | 145.15789 | 6279 ft | 275 kts | 239° |
| 2026-04-25 04:58 | -37.73956 | 145.13858 | 6149 ft | 267 kts | 239° |
| 2026-04-25 04:59 | -37.75030 | 145.11992 | 6030 ft | 259 kts | 239° |
| 2026-04-25 04:59 | -37.76073 | 145.10175 | 5915 ft | 251 kts | 239° |
| 2026-04-25 04:59 | -37.77093 | 145.08394 | 5688 ft | 250 kts | 239° |
| 2026-04-25 04:59 | -37.78112 | 145.06610 | 5432 ft | 249 kts | 239° |
| 2026-04-25 05:00 | -37.79126 | 145.04838 | 5190 ft | 249 kts | 239° |
| 2026-04-25 05:00 | -37.80126 | 145.03090 | 4948 ft | 248 kts | 239° |
| 2026-04-25 05:00 | -37.81133 | 145.01304 | 4697 ft | 247 kts | 244° |
| 2026-04-25 05:00 | -37.81694 | 144.99354 | 4558 ft | 228 kts | 264° |
| 2026-04-25 05:01 | -37.82004 | 144.97424 | 4335 ft | 221 kts | 263° |
| 2026-04-25 05:01 | -37.82321 | 144.95556 | 4123 ft | 212 kts | 263° |
| 2026-04-25 05:01 | -37.82612 | 144.93764 | 3888 ft | 204 kts | 266° |
| 2026-04-25 05:01 | -37.82828 | 144.92040 | 3665 ft | 198 kts | 267° |
| 2026-04-25 05:02 | -37.83035 | 144.90318 | 3442 ft | 195 kts | 268° |
| 2026-04-25 05:02 | -37.83134 | 144.88650 | 3235 ft | 188 kts | 285° |
| 2026-04-25 05:02 | -37.82546 | 144.87286 | 3039 ft | 173 kts | 320° |
| 2026-04-25 05:02 | -37.81540 | 144.86578 | 2835 ft | 162 kts | 348° |
| 2026-04-25 05:03 | -37.80433 | 144.86346 | 2695 ft | 162 kts | 351° |
| 2026-04-25 05:03 | -37.79343 | 144.86132 | 2462 ft | 155 kts | 351° |
| 2026-04-25 05:03 | -37.78315 | 144.85934 | 2297 ft | 144 kts | 350° |
| 2026-04-25 05:03 | -37.77308 | 144.85742 | 2102 ft | 149 kts | 351° |
| 2026-04-25 05:04 | -37.76282 | 144.85547 | 1900 ft | 149 kts | 352° |
| 2026-04-25 05:04 | -37.75250 | 144.85352 | 1715 ft | 151 kts | 352° |
| 2026-04-25 05:04 | -37.74230 | 144.85159 | 1492 ft | 144 kts | 353° |
| 2026-04-25 05:04 | -37.73237 | 144.84973 | 1324 ft | 145 kts | 352° |
| 2026-04-25 05:05 | -37.72276 | 144.84793 | 1071 ft | 134 kts | 352° |
| 2026-04-25 05:05 | -37.71359 | 144.84621 | 949 ft | 136 kts | 350° |
| 2026-04-25 05:05 | -37.70369 | 144.84433 | 735 ft | 150 kts | 350° |
| 2026-04-25 05:05 | -37.69356 | 144.84245 | 581 ft | 142 kts | 351° |
| 2026-04-25 05:06 | -37.68388 | 144.84066 | 387 ft | 138 kts | 351° |
| 2026-04-25 05:06 | -37.67547 | 144.83908 | 364 ft | 96 kts | 351° |
| 2026-04-25 05:06 | -37.67142 | 144.83834 | 378 ft | 36 kts | 355° |
| 2026-04-25 05:06 | -37.66943 | 144.83865 | 382 ft | 21 kts | 17° |
| 2026-04-25 05:07 | -37.66846 | 144.83910 | 382 ft | 11 kts | 21° |
| 2026-04-25 05:07 | -37.66822 | 144.83922 | 382 ft | 0 kts | 22° |
| 2026-04-25 05:08 | -37.66815 | 144.83925 | 382 ft | 3 kts | 21° |
| 2026-04-25 05:09 | -37.66792 | 144.83937 | 382 ft | 4 kts | 21° |
| 2026-04-25 05:09 | -37.66769 | 144.83952 | 382 ft | 4 kts | 31° |
| 2026-04-25 05:09 | -37.66748 | 144.83972 | 382 ft | 4 kts | 43° |
| 2026-04-25 05:09 | -37.66730 | 144.84006 | 381 ft | 6 kts | 64° |
| 2026-04-25 05:10 | -37.66717 | 144.84067 | 379 ft | 9 kts | 80° |
| 2026-04-25 05:10 | -37.66707 | 144.84158 | 375 ft | 12 kts | 81° |
| 2026-04-25 05:10 | -37.66692 | 144.84267 | 370 ft | 13 kts | 81° |
| 2026-04-25 05:10 | -37.66679 | 144.84377 | 363 ft | 12 kts | 82° |
| 2026-04-25 05:11 | -37.66665 | 144.84502 | 355 ft | 17 kts | 82° |
| 2026-04-25 05:11 | -37.66649 | 144.84640 | 345 ft | 15 kts | 81° |
| 2026-04-25 05:11 | -37.66637 | 144.84733 | 338 ft | 9 kts | 82° |
| 2026-04-25 05:12 | -37.66681 | 144.84811 | 336 ft | 3 kts | 135° |
| 2026-04-25 05:12 | -37.66685 | 144.84838 | 336 ft | 3 kts | 89° |
| 2026-04-25 05:12 | -37.66683 | 144.84855 | 337 ft | 2 kts | 83° |
| 2026-04-25 05:12 | -37.66682 | 144.84872 | 337 ft | 2 kts | 82° |
| 2026-04-25 05:13 | -37.66681 | 144.84882 | 338 ft | 0 kts | 84° |